This is the latest recevied weather packets stored in our database for station/object K7KRJ-10. If no packets are shown the sender has not sent any weather packets the latest 10 day(s).
| Time | Temp. | Humidity | Pressure | Rain* | Wind** | Luminosity | Snow |
|---|---|---|---|---|---|---|---|
| 1777654212 | 25.56° C | 30% | 1010.8 hPa | 0 mm | - | 786 W/m² | - |
| 1777653308 | 25.56° C | 30% | 1011 hPa | 0 mm | - | 737 W/m² | - |
| 1777652404 | 25° C | 30% | 1010.7 hPa | 0 mm | - | 685 W/m² | - |
| 1777651501 | 24.44° C | 32% | 1010.7 hPa | 0 mm | - | 634 W/m² | - |
| 1777650597 | 24.44° C | 32% | 1010.7 hPa | 0 mm | - | 585 W/m² | - |
| 1777649695 | 23.89° C | 33% | 1010.5 hPa | 0 mm | - | 525 W/m² | - |
| 1777648791 | 23.33° C | 34% | 1010.3 hPa | 0 mm | - | 465 W/m² | - |
| 1777647885 | 22.78° C | 36% | 1010.2 hPa | 0 mm | - | 404 W/m² | - |
| 1777646982 | 22.22° C | 36% | 1010 hPa | 0 mm | - | 337 W/m² | - |
| 1777646083 | 22.22° C | 36% | 1009.9 hPa | 0 mm | - | 273 W/m² | - |
| 1777645178 | 21.67° C | 36% | 1009.8 hPa | 0 mm | - | 212 W/m² | - |
| 1777644274 | 21.67° C | 36% | 1009.8 hPa | 0 mm | - | 155 W/m² | - |
| 1777643371 | 20.56° C | 37% | 1009.6 hPa | 0 mm | - | 106 W/m² | - |
| 1777642467 | 20° C | 37% | 1009.2 hPa | 0 mm | - | 71 W/m² | - |
| 1777641566 | 18.89° C | 39% | 1009.1 hPa | 0 mm | - | 43 W/m² | - |
| 1777640665 | 18.33° C | 41% | 1009 hPa | 0 mm | - | 25 W/m² | - |
| 1777639761 | 17.78° C | 40% | 1008.8 hPa | 0 mm | - | 11 W/m² | - |
| 1777638857 | 17.78° C | 41% | 1008.4 hPa | 0 mm | - | 2 W/m² | - |
| 1777637957 | 18.33° C | 40% | 1008.3 hPa | 0 mm | - | 0 W/m² | - |
| 1777637054 | 18.33° C | 39% | 1007.9 hPa | 0 mm | - | 0 W/m² | - |
| 1777636154 | 18.89° C | 38% | 1007.8 hPa | 0 mm | - | 0 W/m² | - |
| 1777635254 | 18.33° C | 41% | 1008.1 hPa | 0 mm | - | 0 W/m² | - |
| 1777634351 | 18.33° C | 41% | 1007.7 hPa | 0 mm | - | 0 W/m² | - |
| 1777633448 | 18.89° C | 39% | 1007.6 hPa | 0 mm | - | 0 W/m² | - |
| 1777632549 | 18.89° C | 39% | 1007.2 hPa | 0 mm | - | 0 W/m² | - |
* Rain latest hour (hover to see other rain measurements)
** Current wind speed in m/s (hover to see current wind gust speed)